Time;durP1;ratioP1;P1;durP2;ratioP2;P2;SDS_P1;SDS_P2;PMS_P1;PMS_P2;Temp;Humidity;BMP_temperature;BMP_pressure;BME280_temperature;BME280_humidity;BME280_pressure;Samples;Min_cycle;Max_cycle;Signal;HPM_P1;HPM_P2
2023/04/27 00:00:15;;;;;;;3.70;0.73;;;;;;;4.96;100.00;100174.28;4850093;29;20045;-91
2023/04/27 00:02:40;;;;;;;0.25;0.25;;;;;;;4.92;100.00;100157.03;4870355;29;20057;-91
2023/04/27 00:05:06;;;;;;;0.20;0.20;;;;;;;5.09;100.00;100173.50;4873784;29;20549;-90
2023/04/27 00:07:32;;;;;;;0.05;0.05;;;;;;;5.13;100.00;100167.97;4870221;29;20601;-91
2023/04/27 00:09:57;;;;;;;0.52;0.52;;;;;;;5.06;100.00;100157.75;4855222;29;21396;-91
2023/04/27 00:12:23;;;;;;;7.32;1.40;;;;;;;5.17;100.00;100168.75;4849465;29;20041;-91
2023/04/27 00:14:48;;;;;;;1.05;0.30;;;;;;;5.10;100.00;100149.50;4854257;29;20045;-91
2023/04/27 00:17:14;;;;;;;0.35;0.35;;;;;;;5.13;100.00;100163.25;4851298;29;20045;-91
2023/04/27 00:19:40;;;;;;;0.63;0.47;;;;;;;5.13;100.00;100173.47;4855603;29;20391;-91
2023/04/27 00:22:07;;;;;;;0.22;0.22;;;;;;;5.05;100.00;100149.94;4856679;29;20041;-90
2023/04/27 00:24:32;;;;;;;0.20;0.20;;;;;;;4.99;100.00;100140.50;4869163;29;20090;-91
2023/04/27 00:26:58;;;;;;;0.10;0.10;;;;;;;4.97;100.00;100140.91;4870416;29;20057;-91
2023/04/27 00:29:23;;;;;;;1.73;1.38;;;;;;;5.08;100.00;100160.13;4824588;29;20097;-91
2023/04/27 00:31:49;;;;;;;0.25;0.25;;;;;;;5.11;100.00;100159.31;4850876;29;20445;-91
2023/04/27 00:34:15;;;;;;;0.40;0.40;;;;;;;5.05;100.00;100160.94;4851972;29;20120;-91
2023/04/27 00:36:41;;;;;;;0.22;0.22;;;;;;;4.97;100.00;100142.88;4854068;29;20051;-91
2023/04/27 00:39:06;;;;;;;0.95;0.95;;;;;;;4.92;100.00;100129.53;4857571;29;20521;-92
2023/04/27 00:41:32;;;;;;;0.35;0.35;;;;;;;4.66;100.00;100101.31;4851635;29;20041;-91
2023/04/27 00:43:58;;;;;;;0.63;0.63;;;;;;;4.91;100.00;100130.72;4842076;29;20274;-90
2023/04/27 00:46:26;;;;;;;0.10;0.10;;;;;;;4.98;100.00;100142.47;4854720;29;20037;-92
2023/04/27 00:48:52;;;;;;;0.32;0.32;;;;;;;4.75;100.00;100109.16;4853409;29;20049;-91
2023/04/27 00:51:17;;;;;;;1.45;1.38;;;;;;;4.83;100.00;100107.16;4851907;29;20038;-91
2023/04/27 00:53:43;;;;;;;0.13;0.13;;;;;;;4.94;100.00;100127.94;4849374;29;20041;-90
2023/04/27 00:56:08;;;;;;;1.00;0.52;;;;;;;4.96;100.00;100135.81;4855587;29;20040;-91
2023/04/27 00:58:34;;;;;;;0.08;0.08;;;;;;;4.88;100.00;100117.75;4850551;29;20045;-91
2023/04/27 01:03:42;;;;;;;0.00;0.00;;;;;;;4.87;100.00;100143.69;3867748;23;20167;-88
2023/04/27 01:06:08;;;;;;;0.03;0.03;;;;;;;4.67;100.00;100157.84;4864871;29;20046;-88
2023/04/27 01:08:34;;;;;;;0.52;0.52;;;;;;;4.46;100.00;100130.38;4870599;29;20068;-88
2023/04/27 01:11:01;;;;;;;0.20;0.20;;;;;;;4.52;100.00;100153.53;4870143;29;20040;-88
2023/04/27 01:13:26;;;;;;;0.60;0.60;;;;;;;4.54;100.00;100148.44;4858554;29;20151;-88
2023/04/27 01:15:53;;;;;;;0.57;0.57;;;;;;;4.69;100.00;100166.47;4878183;29;20150;-88
2023/04/27 01:18:19;;;;;;;0.10;0.10;;;;;;;4.71;100.00;100157.84;4867235;29;20084;-96
2023/04/27 01:20:44;;;;;;;1.10;0.45;;;;;;;4.67;100.00;100157.06;4891729;29;20067;-88
2023/04/27 01:23:14;;;;;;;1.45;1.33;;;;;;;4.68;100.00;100153.94;4880634;29;20409;-88
2023/04/27 01:25:41;;;;;;;0.55;0.55;;;;;;;4.58;100.00;100156.66;4851513;29;20051;-88
2023/04/27 01:28:06;;;;;;;0.25;0.25;;;;;;;4.45;100.00;100148.03;4877533;29;20035;-88
2023/04/27 01:30:32;;;;;;;0.10;0.10;;;;;;;4.36;100.00;100147.66;4887492;29;20103;-88
2023/04/27 01:32:58;;;;;;;0.43;0.32;;;;;;;4.41;100.00;100169.22;4887963;29;20044;-88
2023/04/27 01:35:23;;;;;;;0.45;0.45;;;;;;;4.18;100.00;100130.38;4856641;29;20051;-88
2023/04/27 01:37:50;;;;;;;0.32;0.20;;;;;;;4.38;100.00;100164.53;4877740;29;20541;-88
2023/04/27 01:40:16;;;;;;;0.52;0.52;;;;;;;4.48;100.00;100179.44;4873303;29;20036;-88
2023/04/27 01:42:42;;;;;;;0.57;0.57;;;;;;;4.46;100.00;100168.84;4873479;29;20044;-88
2023/04/27 01:45:08;;;;;;;0.20;0.20;;;;;;;4.38;100.00;100172.75;4861240;29;20583;-88
2023/04/27 01:47:34;;;;;;;0.40;0.40;;;;;;;4.41;100.00;100182.94;4878051;29;20057;-88
2023/04/27 01:49:59;;;;;;;0.73;0.73;;;;;;;4.37;100.00;100190.41;4878072;29;20047;-88
2023/04/27 01:52:25;;;;;;;0.35;0.35;;;;;;;4.31;100.00;100186.50;4856100;29;20037;-88
2023/04/27 01:54:50;;;;;;;0.00;0.00;;;;;;;4.31;100.00;100178.25;4881210;29;20129;-88
2023/04/27 01:57:16;;;;;;;0.17;0.17;;;;;;;4.33;100.00;100186.13;4880301;29;20132;-88
2023/04/27 01:59:42;;;;;;;1.38;1.02;;;;;;;4.42;100.00;100194.72;4875194;29;20079;-88
2023/04/27 02:02:07;;;;;;;0.00;0.00;;;;;;;4.45;100.00;100191.97;4877748;29;20045;-88
2023/04/27 02:04:35;;;;;;;0.98;0.40;;;;;;;4.43;100.00;100177.06;4871980;29;20113;-95
2023/04/27 02:07:01;;;;;;;1.75;0.63;;;;;;;4.44;100.00;100181.41;4871499;29;20641;-94
2023/04/27 02:09:27;;;;;;;1.40;0.65;;;;;;;4.43;100.00;100183.34;4903212;29;20088;-94
2023/04/27 02:11:53;;;;;;;0.00;0.00;;;;;;;4.43;100.00;100172.38;4885547;29;20048;-95
2023/04/27 02:14:18;;;;;;;0.00;0.00;;;;;;;4.53;100.00;100198.28;4871352;29;20044;-95
2023/04/27 02:16:45;;;;;;;0.38;0.38;;;;;;;4.47;100.00;100181.41;4875488;29;20036;-88
2023/04/27 02:19:11;;;;;;;0.00;0.00;;;;;;;4.44;100.00;100182.19;4895548;29;20044;-87
2023/04/27 02:21:39;;;;;;;0.25;0.25;;;;;;;4.25;100.00;100160.59;4893620;29;20092;-87
2023/04/27 02:24:05;;;;;;;0.45;0.45;;;;;;;4.49;100.00;100203.75;4910592;29;20086;-88
2023/04/27 02:26:31;;;;;;;0.20;0.20;;;;;;;4.40;100.00;100183.38;4900191;29;20084;-88
2023/04/27 02:28:56;;;;;;;0.20;0.13;;;;;;;4.35;100.00;100172.75;4882014;29;20040;-88
2023/04/27 02:31:22;;;;;;;0.70;0.70;;;;;;;4.18;100.00;100163.31;4875549;29;20040;-88
2023/04/27 02:33:48;;;;;;;0.40;0.40;;;;;;;4.22;100.00;100172.34;4877415;29;20044;-88
2023/04/27 02:36:13;;;;;;;0.20;0.20;;;;;;;4.43;100.00;100194.34;4864181;29;20043;-88
2023/04/27 02:38:39;;;;;;;0.28;0.28;;;;;;;4.42;100.00;100187.28;4898240;29;20083;-88
2023/04/27 02:41:05;;;;;;;0.38;0.38;;;;;;;4.38;100.00;100188.44;4901344;29;20051;-88
2023/04/27 02:43:32;;;;;;;0.47;0.30;;;;;;;4.45;100.00;100197.47;4915936;29;20071;-89
2023/04/27 02:46:02;;;;;;;0.70;0.57;;;;;;;4.33;100.00;100189.63;4899540;29;20079;-88
2023/04/27 02:48:29;;;;;;;0.43;0.38;;;;;;;4.41;100.00;100199.44;4894554;29;20059;-88
2023/04/27 02:50:56;;;;;;;0.00;0.00;;;;;;;4.48;100.00;100198.66;4904950;29;20040;-88
2023/04/27 02:53:22;;;;;;;0.00;0.00;;;;;;;4.57;100.00;100212.81;4882686;29;20113;-88
2023/04/27 02:55:47;;;;;;;0.00;0.00;;;;;;;4.44;100.00;100190.44;4884852;29;20032;-88
2023/04/27 02:58:13;;;;;;;0.10;0.10;;;;;;;4.58;100.00;100209.66;4877359;29;20049;-87
2023/04/27 03:00:48;;;;;;;0.73;0.55;;;;;;;4.42;100.00;100184.53;4879515;29;20045;-88
2023/04/27 03:03:13;;;;;;;0.10;0.10;;;;;;;4.62;100.00;100207.69;4889755;29;20112;-88
2023/04/27 03:05:39;;;;;;;0.28;0.28;;;;;;;4.65;100.00;100214.38;4884258;29;20037;-88
2023/04/27 03:08:05;;;;;;;1.77;0.38;;;;;;;4.59;100.00;100211.22;4867005;29;20059;-88
2023/04/27 03:10:30;;;;;;;0.77;0.77;;;;;;;4.41;100.00;100204.91;4873945;29;20048;-88
2023/04/27 03:12:56;;;;;;;0.57;0.57;;;;;;;4.43;100.00;100208.06;4874944;29;20074;-95
2023/04/27 03:15:21;;;;;;;0.00;0.00;;;;;;;4.46;100.00;100220.22;4899929;29;20071;-95
2023/04/27 03:17:47;;;;;;;0.10;0.10;;;;;;;4.48;100.00;100215.94;4886447;29;20044;-94
2023/04/27 03:20:13;;;;;;;0.10;0.10;;;;;;;4.35;100.00;100187.28;4886075;29;20044;-93
2023/04/27 03:22:38;;;;;;;0.10;0.10;;;;;;;4.44;100.00;100203.38;4902358;29;20069;-95
2023/04/27 03:25:04;;;;;;;0.52;0.52;;;;;;;4.44;100.00;100198.66;4883851;29;20062;-95
2023/04/27 03:27:30;;;;;;;0.40;0.20;;;;;;;4.52;100.00;100224.19;4882097;29;20037;-93
2023/04/27 03:29:56;;;;;;;0.75;0.75;;;;;;;4.41;100.00;100221.41;4919080;29;20084;-94
2023/04/27 03:32:21;;;;;;;0.70;0.65;;;;;;;4.31;100.00;100207.66;4900878;29;20046;-94
2023/04/27 03:34:47;;;;;;;0.52;0.22;;;;;;;4.29;100.00;100224.53;4897439;29;20036;-95
2023/04/27 03:37:13;;;;;;;2.45;0.93;;;;;;;4.22;100.00;100213.53;4884565;29;20570;-96
2023/04/27 03:39:38;;;;;;;0.43;0.35;;;;;;;4.27;100.00;100221.41;4869052;29;20093;-95
2023/04/27 03:42:04;;;;;;;0.28;0.28;;;;;;;4.30;100.00;100237.09;4883389;29;20040;-96
2023/04/27 03:44:32;;;;;;;0.75;0.75;;;;;;;4.33;100.00;100225.31;4868113;29;20044;-96
2023/04/27 03:46:58;;;;;;;0.52;0.52;;;;;;;4.22;100.00;100205.31;4867992;29;20036;-95
2023/04/27 03:49:23;;;;;;;0.38;0.38;;;;;;;4.37;100.00;100226.09;4871010;29;20044;-95
2023/04/27 03:51:49;;;;;;;0.15;0.15;;;;;;;4.22;100.00;100194.31;4869663;29;20036;-96
2023/04/27 03:54:15;;;;;;;0.00;0.00;;;;;;;4.32;100.00;100223.75;4871110;29;20048;-96
2023/04/27 03:56:40;;;;;;;1.75;1.65;;;;;;;4.45;100.00;100238.66;4871348;29;20502;-95
2023/04/27 03:59:06;;;;;;;0.60;0.60;;;;;;;4.39;100.00;100234.75;4861512;29;20400;-95
2023/04/27 04:01:35;;;;;;;0.85;0.50;;;;;;;4.46;100.00;100234.75;4869150;29;20044;-95
2023/04/27 04:04:01;;;;;;;0.68;0.63;;;;;;;4.43;100.00;100230.06;4865255;29;20044;-95
2023/04/27 04:06:26;;;;;;;0.50;0.50;;;;;;;4.54;100.00;100241.03;4885097;29;20485;-96
2023/04/27 04:08:53;;;;;;;0.22;0.22;;;;;;;4.60;100.00;100244.97;4868266;29;20067;-95
2023/04/27 04:11:18;;;;;;;0.43;0.43;;;;;;;4.61;100.00;100241.81;4874806;29;20072;-95
2023/04/27 04:13:44;;;;;;;0.00;0.00;;;;;;;4.65;100.00;100239.88;4881459;29;20127;-95
2023/04/27 04:16:09;;;;;;;0.30;0.30;;;;;;;4.68;100.00;100236.34;4868801;29;20127;-96
2023/04/27 04:18:35;;;;;;;0.00;0.00;;;;;;;4.78;100.00;100240.25;4868860;29;20051;-95
2023/04/27 04:21:01;;;;;;;0.10;0.10;;;;;;;4.80;100.00;100250.88;4876441;29;20043;-96
2023/04/27 04:23:27;;;;;;;0.10;0.10;;;;;;;4.67;100.00;100236.72;4875462;29;20047;-94
2023/04/27 04:25:56;;;;;;;0.47;0.47;;;;;;;4.81;100.00;100263.44;4873967;29;20041;-88
2023/04/27 04:28:23;;;;;;;0.25;0.25;;;;;;;4.81;100.00;100255.19;4899983;29;20130;-94
2023/04/27 04:30:50;;;;;;;0.17;0.17;;;;;;;4.85;100.00;100258.72;4881984;29;20044;-95
2023/04/27 04:33:16;;;;;;;0.45;0.45;;;;;;;4.86;100.00;100257.53;4869481;29;20687;-96
2023/04/27 04:35:42;;;;;;;0.47;0.47;;;;;;;4.82;100.00;100249.28;4868001;29;20033;-95
2023/04/27 04:38:12;;;;;;;0.68;0.68;;;;;;;4.76;100.00;100247.34;4868468;29;20052;-94
2023/04/27 04:40:38;;;;;;;0.50;0.50;;;;;;;4.85;100.00;100261.47;4865159;29;20087;-94
2023/04/27 04:43:04;;;;;;;0.22;0.22;;;;;;;4.79;100.00;100258.34;4880434;29;20040;-93
2023/04/27 04:45:30;;;;;;;0.22;0.22;;;;;;;4.82;100.00;100256.75;4863673;29;20044;-95
2023/04/27 04:47:56;;;;;;;0.88;0.85;;;;;;;4.83;100.00;100247.34;4866500;29;20403;-88
2023/04/27 04:50:23;;;;;;;0.30;0.30;;;;;;;4.76;100.00;100230.84;4901053;29;20036;-88
2023/04/27 04:52:50;;;;;;;0.13;0.13;;;;;;;4.62;100.00;100204.94;4900815;29;20051;-88
2023/04/27 04:55:16;;;;;;;0.20;0.20;;;;;;;4.94;100.00;100259.91;4887680;29;20048;-88
2023/04/27 04:57:42;;;;;;;0.40;0.40;;;;;;;5.04;100.00;100272.88;4882422;29;20418;-88
2023/04/27 05:00:12;;;;;;;0.68;0.47;;;;;;;4.98;100.00;100257.13;4886186;29;20478;-88
2023/04/27 05:02:38;;;;;;;0.32;0.32;;;;;;;4.95;100.00;100263.44;4874246;29;20056;-94
2023/04/27 05:05:04;;;;;;;0.30;0.30;;;;;;;5.00;100.00;100274.03;4905386;29;20044;-88
2023/04/27 05:07:30;;;;;;;0.60;0.47;;;;;;;5.01;100.00;100270.13;4887777;29;20036;-89
2023/04/27 05:09:56;;;;;;;0.35;0.35;;;;;;;5.07;100.00;100260.28;4863466;29;20486;-89
2023/04/27 05:12:21;;;;;;;0.13;0.13;;;;;;;5.12;100.00;100262.63;4871560;29;20079;-88
2023/04/27 05:14:47;;;;;;;0.73;0.43;;;;;;;5.19;100.00;100251.63;4888620;29;20036;-88
2023/04/27 05:17:13;;;;;;;0.10;0.10;;;;;;;5.45;100.00;100264.94;4869461;29;20118;-89
2023/04/27 05:19:38;;;;;;;0.05;0.05;;;;;;;5.54;100.00;100273.53;4874585;29;20047;-89
2023/04/27 05:22:04;;;;;;;0.73;0.68;;;;;;;5.69;100.00;100279.03;4876825;29;20068;-88
2023/04/27 05:24:29;;;;;;;0.43;0.43;;;;;;;5.66;100.00;100271.56;4885751;29;20628;-89
2023/04/27 05:26:55;;;;;;;0.10;0.10;;;;;;;5.80;100.00;100282.53;4875066;29;20048;-88
2023/04/27 05:29:21;;;;;;;0.13;0.13;;;;;;;5.85;100.00;100285.66;4858291;29;20479;-89
2023/04/27 05:31:46;;;;;;;0.68;0.65;;;;;;;5.93;100.00;100275.44;4890893;29;20056;-89
2023/04/27 05:34:12;;;;;;;0.15;0.15;;;;;;;5.97;100.00;100281.69;4871934;29;20043;-89
2023/04/27 05:36:38;;;;;;;0.20;0.20;;;;;;;6.01;100.00;100287.97;4883424;29;20181;-88
2023/04/27 05:39:03;;;;;;;0.22;0.22;;;;;;;6.17;100.00;100279.25;4873291;29;20188;-90
2023/04/27 05:41:29;;;;;;;1.02;0.90;;;;;;;6.15;100.00;100254.84;4871672;29;20135;-88
2023/04/27 05:43:55;;;;;;;0.75;0.50;;;;;;;6.57;100.00;100287.69;4888349;29;20056;-89
2023/04/27 05:46:21;;;;;;;0.60;0.60;;;;;;;6.81;100.00;100288.69;4893294;29;20044;-89
2023/04/27 05:48:46;;;;;;;0.80;0.80;;;;;;;6.92;100.00;100296.88;4878218;29;20109;-88
2023/04/27 05:51:12;;;;;;;0.10;0.10;;;;;;;7.04;100.00;100288.88;4873284;29;20053;-89
2023/04/27 05:53:38;;;;;;;0.22;0.22;;;;;;;7.21;100.00;100276.13;4902734;29;20569;-89
2023/04/27 05:56:05;;;;;;;0.32;0.32;;;;;;;7.54;100.00;100287.63;4899979;29;20048;-89
2023/04/27 05:58:32;;;;;;;0.55;0.32;;;;;;;7.72;100.00;100283.50;4873672;29;20529;-89
2023/04/27 06:00:58;;;;;;;1.52;1.05;;;;;;;7.99;100.00;100280.81;4867063;29;20051;-88
2023/04/27 06:03:24;;;;;;;0.47;0.47;;;;;;;8.06;100.00;100285.47;4881009;29;20103;-89
2023/04/27 06:05:57;;;;;;;0.08;0.08;;;;;;;8.13;100.00;100286.16;4896264;29;20090;-88
2023/04/27 06:08:22;;;;;;;0.10;0.10;;;;;;;8.12;100.00;100279.06;4876161;29;20491;-89
2023/04/27 06:10:52;;;;;;;0.10;0.10;;;;;;;8.40;100.00;100306.38;4878093;29;20041;-90
2023/04/27 06:13:18;;;;;;;0.82;0.43;;;;;;;8.47;100.00;100305.47;4881192;29;20075;-89
2023/04/27 06:15:43;;;;;;;0.10;0.10;;;;;;;8.20;100.00;100257.66;4876324;29;20507;-89
2023/04/27 06:18:09;;;;;;;0.08;0.08;;;;;;;8.56;100.00;100307.72;4873460;29;20494;-89
2023/04/27 06:20:35;;;;;;;5.95;2.45;;;;;;;8.53;100.00;100297.50;4913707;29;20083;-96
2023/04/27 06:23:01;;;;;;;0.03;0.03;;;;;;;8.70;87.67;100301.97;4897139;29;20044;-96
2023/04/27 06:25:27;;;;;;;0.40;0.40;;;;;;;8.86;83.81;100296.59;4877080;29;20045;-95
2023/04/27 06:27:54;;;;;;;1.40;0.85;;;;;;;9.19;82.02;100303.97;4891619;29;20036;-95
2023/04/27 06:30:19;;;;;;;0.38;0.38;;;;;;;9.48;73.81;100300.69;4899777;29;20079;-96
2023/04/27 06:32:45;;;;;;;0.20;0.20;;;;;;;9.81;67.36;100302.47;4901943;29;20078;-96
2023/04/27 06:35:10;;;;;;;3.25;0.77;;;;;;;9.98;61.88;100284.72;4934858;29;20097;-89
2023/04/27 06:37:36;;;;;;;0.73;0.73;;;;;;;10.39;63.70;100305.66;4887486;29;20482;-89
2023/04/27 06:40:02;;;;;;;0.35;0.35;;;;;;;10.60;53.47;100307.94;4884500;29;20067;-89
2023/04/27 06:42:28;;;;;;;0.20;0.20;;;;;;;10.82;48.18;100305.47;4902145;29;20032;-89
2023/04/27 06:44:57;;;;;;;1.20;0.82;;;;;;;10.82;49.10;100297.94;4917234;29;20058;-89
2023/04/27 06:47:23;;;;;;;0.10;0.10;;;;;;;11.02;50.96;100323.63;4899696;29;20067;-89
2023/04/27 06:49:49;;;;;;;0.30;0.28;;;;;;;11.10;48.01;100319.47;4900827;29;20062;-89
2023/04/27 06:52:15;;;;;;;0.55;0.55;;;;;;;11.21;50.48;100314.44;4901755;29;20470;-89
2023/04/27 06:54:40;;;;;;;0.17;0.17;;;;;;;11.30;47.75;100304.69;4891562;29;20113;-89
2023/04/27 06:57:06;;;;;;;0.38;0.38;;;;;;;11.48;47.81;100318.94;4889387;29;20044;-89
2023/04/27 06:59:32;;;;;;;0.98;0.35;;;;;;;11.36;48.84;100297.41;4879108;29;20057;-89
2023/04/27 07:01:57;;;;;;;0.28;0.28;;;;;;;11.43;47.91;100313.88;4901066;29;20040;-89
2023/04/27 07:04:23;;;;;;;0.20;0.20;;;;;;;11.43;45.88;100286.13;4898278;29;20296;-89
2023/04/27 07:06:49;;;;;;;0.13;0.13;;;;;;;11.65;44.13;100312.09;4911217;29;20048;-89
2023/04/27 07:09:14;;;;;;;0.00;0.00;;;;;;;11.79;44.22;100314.53;4897435;29;20048;-89
2023/04/27 07:11:40;;;;;;;0.73;0.30;;;;;;;11.89;42.44;100313.47;4890231;29;20063;-89
2023/04/27 07:14:05;;;;;;;2.05;0.35;;;;;;;11.85;42.71;100298.88;4913638;29;20490;-89
2023/04/27 07:16:31;;;;;;;0.35;0.35;;;;;;;12.00;43.10;100302.06;4896010;29;20056;-89
2023/04/27 07:18:57;;;;;;;11.68;0.80;;;;;;;11.91;40.91;100313.81;4896867;29;20115;-89
2023/04/27 07:21:22;;;;;;;0.10;0.10;;;;;;;12.21;39.28;100323.69;4882840;29;20032;-89
2023/04/27 07:23:48;;;;;;;1.90;1.23;;;;;;;12.56;38.18;100333.00;4889556;29;20309;-90
2023/04/27 07:26:13;;;;;;;0.00;0.00;;;;;;;12.55;36.91;100315.50;4874359;29;20071;-89
2023/04/27 07:28:39;;;;;;;0.32;0.32;;;;;;;12.84;35.85;100326.56;4916919;29;20048;-89
2023/04/27 07:31:05;;;;;;;0.25;0.25;;;;;;;13.14;35.16;100324.47;4901388;29;20572;-89
2023/04/27 07:33:31;;;;;;;0.20;0.20;;;;;;;13.50;35.85;100324.84;4878434;29;20036;-90
2023/04/27 07:35:57;;;;;;;0.40;0.40;;;;;;;13.50;34.71;100310.91;4880663;29;20032;-90
2023/04/27 07:38:24;;;;;;;0.20;0.20;;;;;;;13.75;34.14;100296.84;4897508;29;20154;-89
2023/04/27 07:40:50;;;;;;;0.22;0.22;;;;;;;14.09;32.40;100321.13;4866728;29;20155;-89
2023/04/27 07:43:17;;;;;;;0.80;0.75;;;;;;;14.00;32.68;100315.47;4888313;29;20538;-90
2023/04/27 07:45:42;;;;;;;0.60;0.60;;;;;;;14.16;34.58;100290.19;4915605;29;20052;-90
2023/04/27 07:48:08;;;;;;;0.43;0.43;;;;;;;14.39;33.88;100294.56;4881617;29;20043;-89
2023/04/27 07:50:34;;;;;;;0.03;0.03;;;;;;;14.44;32.78;100308.66;4869734;29;20048;-90
2023/04/27 07:52:59;;;;;;;0.17;0.17;;;;;;;14.40;30.57;100301.66;4871138;29;20096;-88
2023/04/27 07:55:25;;;;;;;0.22;0.20;;;;;;;14.68;30.05;100306.16;4898795;29;20040;-88
2023/04/27 07:57:52;;;;;;;0.10;0.10;;;;;;;14.89;30.15;100318.50;4900255;29;20048;-88
2023/04/27 08:00:18;;;;;;;0.75;0.60;;;;;;;14.69;29.97;100321.66;4892357;29;20521;-87
2023/04/27 08:02:43;;;;;;;0.00;0.00;;;;;;;14.58;30.89;100315.72;4888513;29;20052;-87
2023/04/27 08:05:09;;;;;;;0.38;0.28;;;;;;;14.36;30.58;100309.41;4893925;29;20545;-87
2023/04/27 08:07:35;;;;;;;0.45;0.35;;;;;;;14.38;30.52;100301.34;4894850;29;20059;-90
2023/04/27 08:10:00;;;;;;;0.05;0.05;;;;;;;14.57;32.49;100311.38;4896783;29;20040;-89
2023/04/27 08:12:26;;;;;;;0.70;0.52;;;;;;;14.90;32.55;100309.66;4900405;29;20036;-89
2023/04/27 08:14:51;;;;;;;0.10;0.10;;;;;;;15.01;32.56;100314.81;4896714;29;20039;-89
2023/04/27 08:17:18;;;;;;;0.10;0.10;;;;;;;14.67;32.01;100321.38;4863841;29;20527;-90
2023/04/27 08:19:43;;;;;;;0.10;0.10;;;;;;;14.37;33.66;100308.94;4879840;29;20048;-89
2023/04/27 08:22:09;;;;;;;0.10;0.10;;;;;;;14.13;32.77;100323.78;4872065;29;20087;-89
2023/04/27 08:24:35;;;;;;;0.15;0.15;;;;;;;13.63;32.92;100294.13;4868062;29;20043;-90
2023/04/27 08:27:02;;;;;;;0.20;0.10;;;;;;;13.96;32.90;100320.41;4874616;29;20406;-89
2023/04/27 08:29:27;;;;;;;0.50;0.50;;;;;;;14.23;33.82;100317.06;4887528;29;20028;-96
2023/04/27 08:31:53;;;;;;;0.15;0.15;;;;;;;14.33;33.21;100321.44;4934929;29;20054;-96
2023/04/27 08:34:19;;;;;;;1.08;0.45;;;;;;;14.29;33.18;100310.41;4912928;29;20103;-96
2023/04/27 08:36:45;;;;;;;0.98;0.68;;;;;;;14.34;32.99;100300.69;4893873;29;20116;-96
2023/04/27 08:39:10;;;;;;;0.43;0.30;;;;;;;14.37;32.72;100305.38;4909199;29;20047;-96
2023/04/27 08:41:41;;;;;;;0.32;0.32;;;;;;;14.31;31.93;100276.50;4914446;29;20055;-96
2023/04/27 08:44:06;;;;;;;1.70;1.33;;;;;;;14.93;31.92;100317.13;4906951;29;20048;-96
2023/04/27 08:46:32;;;;;;;1.15;0.70;;;;;;;15.39;31.50;100311.66;4888377;29;20056;-95
2023/04/27 08:48:57;;;;;;;1.75;1.42;;;;;;;15.94;31.17;100312.50;4896683;29;20052;-96
2023/04/27 08:51:26;;;;;;;0.03;0.03;;;;;;;16.30;31.55;100306.84;4901709;29;20139;-96
2023/04/27 08:53:54;;;;;;;0.30;0.30;;;;;;;16.25;31.14;100278.72;4901526;29;20467;-94
2023/04/27 08:56:22;;;;;;;0.38;0.22;;;;;;;16.84;30.79;100315.59;4900173;29;20078;-96
2023/04/27 08:58:48;;;;;;;0.65;0.65;;;;;;;16.48;29.28;100316.47;4895138;29;20048;-96
2023/04/27 09:01:14;;;;;;;1.40;1.30;;;;;;;16.21;30.56;100297.72;4901870;29;20061;-96
2023/04/27 09:03:40;;;;;;;0.10;0.10;;;;;;;16.76;31.50;100287.13;4910037;29;20091;-93
2023/04/27 09:06:07;;;;;;;0.65;0.65;;;;;;;17.19;29.99;100285.81;4865282;29;20044;-94
2023/04/27 09:08:45;;;;;;;1.80;0.82;;;;;;;17.40;28.20;100300.78;4877810;29;20057;-95
2023/04/27 09:11:15;;;;;;;0.28;0.28;;;;;;;17.06;30.02;100296.50;4880714;29;20067;-94
2023/04/27 09:13:43;;;;;;;0.00;0.00;;;;;;;16.91;31.21;100306.81;4906507;29;20136;-94
2023/04/27 09:16:11;;;;;;;1.60;1.17;;;;;;;16.52;30.82;100280.66;4895313;29;20091;-93
2023/04/27 09:18:40;;;;;;;0.17;0.17;;;;;;;16.23;30.82;100307.19;4895466;29;20064;-94
2023/04/27 09:21:06;;;;;;;0.32;0.32;;;;;;;16.07;31.17;100289.94;4882811;29;20119;-93
2023/04/27 09:23:36;;;;;;;0.05;0.05;;;;;;;16.17;31.47;100311.09;4895908;29;20039;-94
2023/04/27 09:26:09;;;;;;;2.63;0.60;;;;;;;15.91;31.89;100290.28;4911430;29;20040;-92
2023/04/27 09:28:39;;;;;;;0.20;0.20;;;;;;;15.79;32.55;100292.78;4894616;29;20052;-94
2023/04/27 09:31:04;;;;;;;0.45;0.22;;;;;;;15.71;32.51;100287.94;4895131;29;20032;-95
2023/04/27 09:33:31;;;;;;;0.47;0.47;;;;;;;15.66;32.28;100296.94;4897937;29;20048;-94
2023/04/27 09:35:59;;;;;;;0.30;0.30;;;;;;;15.79;33.28;100295.56;4899024;29;20048;-93
2023/04/27 09:38:25;;;;;;;0.00;0.00;;;;;;;16.27;32.27;100295.81;4904121;29;20067;-93
2023/04/27 09:40:51;;;;;;;0.65;0.52;;;;;;;16.25;31.60;100273.13;4896427;29;20499;-93
2023/04/27 09:43:17;;;;;;;0.22;0.22;;;;;;;16.97;32.62;100285.31;4877242;29;20059;-93
2023/04/27 09:45:43;;;;;;;1.08;0.55;;;;;;;17.11;31.47;100284.63;4892985;29;20028;-95
2023/04/27 09:48:09;;;;;;;0.75;0.75;;;;;;;17.29;30.62;100295.72;4893596;29;20075;-94
2023/04/27 09:50:36;;;;;;;0.47;0.47;;;;;;;17.53;32.04;100293.69;4877296;29;20045;-95
2023/04/27 09:53:05;;;;;;;0.20;0.20;;;;;;;17.03;31.35;100291.81;4873875;29;20044;-94
2023/04/27 09:55:34;;;;;;;0.65;0.32;;;;;;;17.11;32.13;100282.59;4862760;29;20130;-87
2023/04/27 09:58:19;;;;;;;0.10;0.10;;;;;;;17.31;32.04;100292.47;4908815;29;21437;-91
2023/04/27 10:00:50;;;;;;;0.20;0.20;;;;;;;17.35;31.43;100281.84;4913569;29;20071;-90
2023/04/27 10:03:53;;;;;;;0.10;0.10;;;;;;;17.35;32.00;100293.06;4930927;29;20080;-90
2023/04/27 10:06:28;;;;;;;0.63;0.35;;;;;;;17.48;32.15;100291.53;4902720;29;20575;-94
2023/04/27 10:08:55;;;;;;;0.38;0.38;;;;;;;17.77;31.48;100284.50;4914351;29;20051;-91
2023/04/27 10:11:33;;;;;;;0.50;0.47;;;;;;;17.68;31.28;100269.28;4900776;29;20091;-90
2023/04/27 10:14:08;;;;;;;0.30;0.30;;;;;;;17.92;31.66;100279.69;4895017;29;20518;-90
2023/04/27 10:16:55;;;;;;;0.38;0.28;;;;;;;18.04;31.49;100259.75;4895673;29;20048;-90
2023/04/27 10:19:22;;;;;;;0.22;0.22;;;;;;;18.21;30.76;100271.28;4898347;29;20048;-90
2023/04/27 10:22:07;;;;;;;0.68;0.15;;;;;;;18.22;30.35;100278.47;4886512;29;20114;-88
2023/04/27 10:24:36;;;;;;;0.93;0.80;;;;;;;18.30;30.28;100270.41;4881680;29;20057;-88
2023/04/27 10:27:07;;;;;;;1.30;1.17;;;;;;;18.58;30.67;100268.88;4857888;29;20374;-87
2023/04/27 10:29:40;;;;;;;0.60;0.47;;;;;;;18.23;29.82;100263.19;4900316;29;20545;-89
2023/04/27 10:32:26;;;;;;;0.20;0.20;;;;;;;18.60;30.82;100266.38;4934939;29;20047;-87
2023/04/27 10:37:37;;;;;;;0.43;0.43;;;;;;;18.31;29.98;100267.13;4915115;29;20541;-89
2023/04/27 10:40:06;;;;;;;0.43;0.40;;;;;;;17.40;31.41;100250.31;4881568;29;20111;-89
2023/04/27 10:42:32;;;;;;;0.45;0.35;;;;;;;17.82;31.87;100250.16;4886512;29;20055;-88
2023/04/27 10:44:58;;;;;;;0.35;0.35;;;;;;;18.10;31.36;100259.88;4866582;29;20410;-89
2023/04/27 10:47:24;;;;;;;0.45;0.40;;;;;;;18.03;31.51;100229.38;4872906;29;20425;-88
2023/04/27 10:49:53;;;;;;;0.30;0.30;;;;;;;17.79;31.73;100237.88;4885378;29;20405;-88
2023/04/27 10:52:19;;;;;;;0.38;0.38;;;;;;;17.75;30.87;100234.50;4873103;29;20044;-88
2023/04/27 10:54:45;;;;;;;0.13;0.13;;;;;;;17.49;31.74;100220.19;4875471;29;20405;-88
2023/04/27 10:57:12;;;;;;;0.40;0.40;;;;;;;17.96;31.51;100247.38;4914715;29;20056;-88
2023/04/27 10:59:48;;;;;;;0.10;0.10;;;;;;;18.14;31.38;100232.38;4870231;29;20131;-89
2023/04/27 11:02:14;;;;;;;0.98;0.60;;;;;;;17.83;31.31;100240.50;4889811;29;20501;-88
2023/04/27 11:04:40;;;;;;;1.08;0.68;;;;;;;18.03;31.69;100237.81;4876047;29;20153;-89
2023/04/27 11:07:11;;;;;;;1.27;0.55;;;;;;;18.21;32.02;100240.41;4872922;29;20055;-88
2023/04/27 11:09:38;;;;;;;1.55;1.17;;;;;;;17.83;30.34;100237.69;4886590;29;20127;-88
2023/04/27 11:12:07;;;;;;;0.28;0.10;;;;;;;17.47;31.79;100245.13;4873917;29;20119;-88
2023/04/27 11:14:35;;;;;;;0.98;0.50;;;;;;;17.59;31.96;100224.47;4869315;29;20047;-88
2023/04/27 11:17:03;;;;;;;0.03;0.03;;;;;;;17.64;32.06;100231.44;4868600;29;20052;-88
2023/04/27 11:19:29;;;;;;;0.65;0.50;;;;;;;17.43;31.73;100238.91;4866011;29;20111;-88
2023/04/27 11:22:02;;;;;;;0.32;0.22;;;;;;;17.83;31.97;100232.09;4861103;29;20063;-89
2023/04/27 11:24:28;;;;;;;1.65;1.38;;;;;;;17.66;33.19;100223.34;4876494;29;20503;-89
2023/04/27 11:26:54;;;;;;;1.38;1.13;;;;;;;17.85;32.43;100229.56;4885847;29;20085;-87